Albia, Iowa
Current Conditions -  °F | °C
As of 6:15 PM on Wednesday 22 Oct 2014 (Local Time) from KOOA Reporting Station
Clear Clear  
Wind Chill: 55°   Ceiling: Unl
Heat Index: 55°   Visibility: 10mi
Dew Point: 42°   Wind: 7mph
Humidity: 60%   Direction: 140°SE
Pressure: 30.16"   Gusts: NA
Location:  41.03°N, 92.81°W
Report Text: KOOA 222315Z AUTO 14006KT 10SM CLR 13/05 A3016 RMK AO2 T01280053
Loading
Personal Weather Stations






























Interactive Weather Map New forecast layout! Learn more

10-Day Weather Forecast

Advertisements
Track Severe Weather on mobile